SBCR/CMG METAR and TAF weather

Enter ICAO airport designator
Station Type Date Time Source
SBCR METAR 2022/06/28 15:00 UTC NOAA

SBCR 281500Z 34003KT CAVOK 28/16 Q1017


Station Type Date Time Source
SBCR Decoded METAR 2022/06/28 15:00 UTC NOAA

Corumba, Brazil (SBCR) 19-05S 057-30W
Jun 28, 2022 - 11:00 AM EDT / 2022.06.28 1500 UTC
Wind: from the NNW (340 degrees) at 3 MPH (3 KT):0
Visibility: greater than 7 mile(s):0
Temperature: 82 F (28 C)
Dew Point: 60 F (16 C)
Relative Humidity: 48%
Pressure (altimeter): 30.03 in. Hg (1017 hPa)
ob: SBCR 281500Z 34003KT CAVOK 28/16 Q1017
cycle: 15

Station Type Date Time Source
SBCR TAF 2022/06/28 18:42 UTC NOAA

TAF SBCR 281315Z 2818/2918 32006KT 8000 FEW025 TX30/2818Z TN13/2907Z
BECMG 2901/2903 22006KT FEW011
BECMG 2914/2916 25006KT FEW015
RMK PGM

Example: see airport list